sensor_id;sensor_type;location;lat;lon;timestamp;temperature;humidity
33741;DHT22;20065;48.380;10.892;2023-05-07T00:00:30;15.40;99.90
33741;DHT22;20065;48.380;10.892;2023-05-07T00:03:17;15.30;99.90
33741;DHT22;20065;48.380;10.892;2023-05-07T00:06:03;15.30;99.90
33741;DHT22;20065;48.380;10.892;2023-05-07T00:08:49;15.30;99.90
33741;DHT22;20065;48.380;10.892;2023-05-07T00:11:35;15.30;99.90
33741;DHT22;20065;48.380;10.892;2023-05-07T00:14:22;15.30;99.90
33741;DHT22;20065;48.380;10.892;2023-05-07T00:17:08;15.30;99.90
33741;DHT22;20065;48.380;10.892;2023-05-07T00:19:54;15.20;99.90
33741;DHT22;20065;48.380;10.892;2023-05-07T00:22:40;15.20;99.90
33741;DHT22;20065;48.380;10.892;2023-05-07T00:25:26;15.20;99.90
33741;DHT22;20065;48.380;10.892;2023-05-07T00:28:12;15.20;99.90
33741;DHT22;20065;48.380;10.892;2023-05-07T00:30:59;15.20;99.90
33741;DHT22;20065;48.380;10.892;2023-05-07T00:33:45;15.20;99.90
33741;DHT22;20065;48.380;10.892;2023-05-07T00:36:31;15.20;99.90
33741;DHT22;20065;48.380;10.892;2023-05-07T00:39:17;15.10;99.90
33741;DHT22;20065;48.380;10.892;2023-05-07T00:42:04;15.20;99.90
33741;DHT22;20065;48.380;10.892;2023-05-07T00:44:50;15.10;99.90
33741;DHT22;20065;48.380;10.892;2023-05-07T00:47:37;15.10;99.90
33741;DHT22;20065;48.380;10.892;2023-05-07T00:50:23;15.10;99.90
33741;DHT22;20065;48.380;10.892;2023-05-07T00:53:09;15.10;99.90
33741;DHT22;20065;48.380;10.892;2023-05-07T00:55:56;15.10;99.90
33741;DHT22;20065;48.380;10.892;2023-05-07T00:58:43;15.10;99.90
33741;DHT22;20065;48.380;10.892;2023-05-07T01:01:29;15.10;99.90
33741;DHT22;20065;48.380;10.892;2023-05-07T01:04:17;15.10;99.90
33741;DHT22;20065;48.380;10.892;2023-05-07T01:07:03;15.00;99.90
33741;DHT22;20065;48.380;10.892;2023-05-07T01:09:51;15.00;99.90
33741;DHT22;20065;48.380;10.892;2023-05-07T01:12:38;14.90;99.90
33741;DHT22;20065;48.380;10.892;2023-05-07T01:15:25;14.90;99.90
33741;DHT22;20065;48.380;10.892;2023-05-07T01:18:12;14.90;99.90
33741;DHT22;20065;48.380;10.892;2023-05-07T01:20:59;15.00;99.90
33741;DHT22;20065;48.380;10.892;2023-05-07T01:23:47;15.00;99.90
33741;DHT22;20065;48.380;10.892;2023-05-07T01:26:34;15.00;99.90
33741;DHT22;20065;48.380;10.892;2023-05-07T01:29:20;15.00;99.90
33741;DHT22;20065;48.380;10.892;2023-05-07T01:32:07;15.00;99.90
33741;DHT22;20065;48.380;10.892;2023-05-07T01:34:54;15.00;99.90
33741;DHT22;20065;48.380;10.892;2023-05-07T01:37:41;15.00;99.90
33741;DHT22;20065;48.380;10.892;2023-05-07T01:40:27;15.10;99.90
33741;DHT22;20065;48.380;10.892;2023-05-07T01:43:14;15.10;99.90
33741;DHT22;20065;48.380;10.892;2023-05-07T01:46:02;15.10;99.90
33741;DHT22;20065;48.380;10.892;2023-05-07T01:48:50;15.00;99.90
33741;DHT22;20065;48.380;10.892;2023-05-07T01:51:36;15.00;99.90
33741;DHT22;20065;48.380;10.892;2023-05-07T01:54:26;14.90;99.90
33741;DHT22;20065;48.380;10.892;2023-05-07T01:57:17;14.90;99.90
33741;DHT22;20065;48.380;10.892;2023-05-07T02:00:04;14.90;99.90
33741;DHT22;20065;48.380;10.892;2023-05-07T02:03:01;14.90;99.90
33741;DHT22;20065;48.380;10.892;2023-05-07T02:06:00;14.90;99.90
33741;DHT22;20065;48.380;10.892;2023-05-07T02:08:53;14.70;99.90
33741;DHT22;20065;48.380;10.892;2023-05-07T02:11:40;14.60;99.90
33741;DHT22;20065;48.380;10.892;2023-05-07T02:14:26;14.80;99.90
33741;DHT22;20065;48.380;10.892;2023-05-07T02:17:12;14.80;99.90
33741;DHT22;20065;48.380;10.892;2023-05-07T02:19:59;14.80;99.90
33741;DHT22;20065;48.380;10.892;2023-05-07T02:22:45;14.70;99.90
33741;DHT22;20065;48.380;10.892;2023-05-07T02:25:32;14.70;99.90
33741;DHT22;20065;48.380;10.892;2023-05-07T02:28:18;14.70;99.90
33741;DHT22;20065;48.380;10.892;2023-05-07T02:31:11;14.70;99.90
33741;DHT22;20065;48.380;10.892;2023-05-07T02:33:58;14.70;99.90
33741;DHT22;20065;48.380;10.892;2023-05-07T02:36:44;14.60;99.90
33741;DHT22;20065;48.380;10.892;2023-05-07T02:39:33;14.60;99.90
33741;DHT22;20065;48.380;10.892;2023-05-07T02:42:20;14.60;99.90
33741;DHT22;20065;48.380;10.892;2023-05-07T02:45:06;14.50;99.90
33741;DHT22;20065;48.380;10.892;2023-05-07T02:47:54;14.50;99.90
33741;DHT22;20065;48.380;10.892;2023-05-07T02:50:40;14.60;99.90
33741;DHT22;20065;48.380;10.892;2023-05-07T02:53:27;14.60;99.90
33741;DHT22;20065;48.380;10.892;2023-05-07T02:56:13;14.60;99.90
33741;DHT22;20065;48.380;10.892;2023-05-07T02:58:59;14.70;99.90
33741;DHT22;20065;48.380;10.892;2023-05-07T03:01:49;14.70;99.90
33741;DHT22;20065;48.380;10.892;2023-05-07T03:04:36;14.70;99.90
33741;DHT22;20065;48.380;10.892;2023-05-07T03:07:22;14.70;99.90
33741;DHT22;20065;48.380;10.892;2023-05-07T03:10:08;14.70;99.90
33741;DHT22;20065;48.380;10.892;2023-05-07T03:12:54;14.60;99.90
33741;DHT22;20065;48.380;10.892;2023-05-07T03:15:41;14.60;99.90
33741;DHT22;20065;48.380;10.892;2023-05-07T03:18:27;14.50;99.90
33741;DHT22;20065;48.380;10.892;2023-05-07T03:21:14;14.50;99.90
33741;DHT22;20065;48.380;10.892;2023-05-07T03:24:01;14.50;99.90
33741;DHT22;20065;48.380;10.892;2023-05-07T03:26:47;14.30;99.90
33741;DHT22;20065;48.380;10.892;2023-05-07T03:29:33;14.50;99.90
33741;DHT22;20065;48.380;10.892;2023-05-07T03:32:19;14.40;99.90
33741;DHT22;20065;48.380;10.892;2023-05-07T03:35:06;14.40;99.90
33741;DHT22;20065;48.380;10.892;2023-05-07T03:37:53;14.40;99.90
33741;DHT22;20065;48.380;10.892;2023-05-07T03:40:40;14.40;99.90
33741;DHT22;20065;48.380;10.892;2023-05-07T03:43:27;14.40;99.90
33741;DHT22;20065;48.380;10.892;2023-05-07T03:46:20;14.40;99.90
33741;DHT22;20065;48.380;10.892;2023-05-07T03:49:07;14.20;99.90
33741;DHT22;20065;48.380;10.892;2023-05-07T03:51:54;14.20;99.90
33741;DHT22;20065;48.380;10.892;2023-05-07T03:54:40;14.10;99.90
33741;DHT22;20065;48.380;10.892;2023-05-07T03:57:26;14.10;99.90
33741;DHT22;20065;48.380;10.892;2023-05-07T04:00:16;14.10;99.90
33741;DHT22;20065;48.380;10.892;2023-05-07T04:03:08;14.30;99.90
33741;DHT22;20065;48.380;10.892;2023-05-07T04:05:54;14.20;99.90
33741;DHT22;20065;48.380;10.892;2023-05-07T04:08:41;14.20;99.90
33741;DHT22;20065;48.380;10.892;2023-05-07T04:11:27;14.20;99.90
33741;DHT22;20065;48.380;10.892;2023-05-07T04:14:14;14.20;99.90
33741;DHT22;20065;48.380;10.892;2023-05-07T04:17:00;14.20;99.90
33741;DHT22;20065;48.380;10.892;2023-05-07T04:19:48;14.20;99.90
33741;DHT22;20065;48.380;10.892;2023-05-07T04:22:35;14.10;99.90
33741;DHT22;20065;48.380;10.892;2023-05-07T04:25:22;14.10;99.90
33741;DHT22;20065;48.380;10.892;2023-05-07T04:28:13;14.10;99.90
33741;DHT22;20065;48.380;10.892;2023-05-07T04:31:01;14.10;99.90
33741;DHT22;20065;48.380;10.892;2023-05-07T04:33:48;14.20;99.90
33741;DHT22;20065;48.380;10.892;2023-05-07T04:36:35;14.10;99.90
33741;DHT22;20065;48.380;10.892;2023-05-07T04:39:26;14.10;99.90
33741;DHT22;20065;48.380;10.892;2023-05-07T04:42:17;14.10;99.90
33741;DHT22;20065;48.380;10.892;2023-05-07T04:45:04;14.10;99.90
33741;DHT22;20065;48.380;10.892;2023-05-07T04:47:53;14.10;99.90
33741;DHT22;20065;48.380;10.892;2023-05-07T04:50:39;14.20;99.90
33741;DHT22;20065;48.380;10.892;2023-05-07T04:53:26;14.30;99.90
33741;DHT22;20065;48.380;10.892;2023-05-07T04:56:14;14.30;99.90
33741;DHT22;20065;48.380;10.892;2023-05-07T04:59:03;14.30;99.90
33741;DHT22;20065;48.380;10.892;2023-05-07T05:01:50;14.30;99.90
33741;DHT22;20065;48.380;10.892;2023-05-07T05:04:37;14.40;99.90
33741;DHT22;20065;48.380;10.892;2023-05-07T05:07:24;14.40;99.90
33741;DHT22;20065;48.380;10.892;2023-05-07T05:10:11;14.40;99.90
33741;DHT22;20065;48.380;10.892;2023-05-07T05:12:59;14.50;99.90
33741;DHT22;20065;48.380;10.892;2023-05-07T05:15:46;14.50;99.90
33741;DHT22;20065;48.380;10.892;2023-05-07T05:18:33;14.50;99.90
33741;DHT22;20065;48.380;10.892;2023-05-07T05:21:19;14.60;99.90
33741;DHT22;20065;48.380;10.892;2023-05-07T05:24:08;14.50;99.90
33741;DHT22;20065;48.380;10.892;2023-05-07T05:26:55;14.60;99.90
33741;DHT22;20065;48.380;10.892;2023-05-07T05:29:41;14.60;99.90
33741;DHT22;20065;48.380;10.892;2023-05-07T05:32:27;14.60;99.90
33741;DHT22;20065;48.380;10.892;2023-05-07T05:35:16;14.70;99.90
33741;DHT22;20065;48.380;10.892;2023-05-07T05:38:03;14.70;99.90
33741;DHT22;20065;48.380;10.892;2023-05-07T05:40:49;14.70;99.90
33741;DHT22;20065;48.380;10.892;2023-05-07T05:43:36;14.70;99.90
33741;DHT22;20065;48.380;10.892;2023-05-07T05:46:22;14.80;99.90
33741;DHT22;20065;48.380;10.892;2023-05-07T05:49:10;14.80;99.90
33741;DHT22;20065;48.380;10.892;2023-05-07T05:51:57;14.90;99.90
33741;DHT22;20065;48.380;10.892;2023-05-07T05:54:45;14.90;99.90
33741;DHT22;20065;48.380;10.892;2023-05-07T05:57:31;14.90;99.90
33741;DHT22;20065;48.380;10.892;2023-05-07T06:00:18;15.00;99.90
33741;DHT22;20065;48.380;10.892;2023-05-07T06:03:07;15.10;99.90
33741;DHT22;20065;48.380;10.892;2023-05-07T06:05:54;15.10;99.90
33741;DHT22;20065;48.380;10.892;2023-05-07T06:08:42;15.10;99.90
33741;DHT22;20065;48.380;10.892;2023-05-07T06:11:30;15.10;99.90
33741;DHT22;20065;48.380;10.892;2023-05-07T06:14:17;15.20;99.90
33741;DHT22;20065;48.380;10.892;2023-05-07T06:17:03;15.20;99.90
33741;DHT22;20065;48.380;10.892;2023-05-07T06:19:49;15.20;99.90
33741;DHT22;20065;48.380;10.892;2023-05-07T06:22:38;15.20;99.90
33741;DHT22;20065;48.380;10.892;2023-05-07T06:25:24;15.20;99.90
33741;DHT22;20065;48.380;10.892;2023-05-07T06:28:11;15.30;99.90
33741;DHT22;20065;48.380;10.892;2023-05-07T06:31:14;15.30;99.90
33741;DHT22;20065;48.380;10.892;2023-05-07T06:34:03;15.40;99.90
33741;DHT22;20065;48.380;10.892;2023-05-07T06:36:56;15.40;99.90
33741;DHT22;20065;48.380;10.892;2023-05-07T06:39:52;15.40;99.90
33741;DHT22;20065;48.380;10.892;2023-05-07T06:42:38;15.40;99.90
33741;DHT22;20065;48.380;10.892;2023-05-07T06:45:59;15.50;99.90
33741;DHT22;20065;48.380;10.892;2023-05-07T06:48:46;15.50;99.90
33741;DHT22;20065;48.380;10.892;2023-05-07T06:51:36;15.50;99.90
33741;DHT22;20065;48.380;10.892;2023-05-07T06:54:23;15.60;99.90
33741;DHT22;20065;48.380;10.892;2023-05-07T06:57:09;15.60;99.90
33741;DHT22;20065;48.380;10.892;2023-05-07T06:59:56;15.70;99.90
33741;DHT22;20065;48.380;10.892;2023-05-07T07:02:42;15.70;99.90
33741;DHT22;20065;48.380;10.892;2023-05-07T07:05:30;15.70;99.90
33741;DHT22;20065;48.380;10.892;2023-05-07T07:08:18;15.80;99.90
33741;DHT22;20065;48.380;10.892;2023-05-07T07:11:05;15.90;99.90
33741;DHT22;20065;48.380;10.892;2023-05-07T07:13:52;15.90;99.90
33741;DHT22;20065;48.380;10.892;2023-05-07T07:16:40;15.90;99.90
33741;DHT22;20065;48.380;10.892;2023-05-07T07:19:27;15.90;99.90
33741;DHT22;20065;48.380;10.892;2023-05-07T07:22:14;15.90;99.90
33741;DHT22;20065;48.380;10.892;2023-05-07T07:25:01;16.00;99.90
33741;DHT22;20065;48.380;10.892;2023-05-07T07:27:49;16.00;99.90
33741;DHT22;20065;48.380;10.892;2023-05-07T07:30:36;16.00;99.90
33741;DHT22;20065;48.380;10.892;2023-05-07T07:33:23;16.00;99.90
33741;DHT22;20065;48.380;10.892;2023-05-07T07:36:09;16.10;99.90
33741;DHT22;20065;48.380;10.892;2023-05-07T07:38:56;16.10;99.90
33741;DHT22;20065;48.380;10.892;2023-05-07T07:41:42;16.20;99.90
33741;DHT22;20065;48.380;10.892;2023-05-07T07:44:28;16.20;99.90
33741;DHT22;20065;48.380;10.892;2023-05-07T07:47:19;16.20;99.90
33741;DHT22;20065;48.380;10.892;2023-05-07T07:50:08;16.30;99.90
33741;DHT22;20065;48.380;10.892;2023-05-07T07:52:54;16.30;99.90
33741;DHT22;20065;48.380;10.892;2023-05-07T07:55:41;16.30;99.90
33741;DHT22;20065;48.380;10.892;2023-05-07T07:58:28;16.40;99.90
33741;DHT22;20065;48.380;10.892;2023-05-07T08:01:15;16.40;99.90
33741;DHT22;20065;48.380;10.892;2023-05-07T08:04:03;16.40;99.90
33741;DHT22;20065;48.380;10.892;2023-05-07T08:06:54;16.50;99.90
33741;DHT22;20065;48.380;10.892;2023-05-07T08:09:41;16.60;99.90
33741;DHT22;20065;48.380;10.892;2023-05-07T08:12:28;16.60;99.90
33741;DHT22;20065;48.380;10.892;2023-05-07T08:15:16;16.60;99.90
33741;DHT22;20065;48.380;10.892;2023-05-07T08:18:04;16.60;99.90
33741;DHT22;20065;48.380;10.892;2023-05-07T08:20:51;16.70;99.90
33741;DHT22;20065;48.380;10.892;2023-05-07T08:23:41;16.80;99.90
33741;DHT22;20065;48.380;10.892;2023-05-07T08:26:28;16.90;99.90
33741;DHT22;20065;48.380;10.892;2023-05-07T08:29:14;16.90;99.90
33741;DHT22;20065;48.380;10.892;2023-05-07T08:32:01;16.90;99.90
33741;DHT22;20065;48.380;10.892;2023-05-07T08:34:48;17.00;99.90
33741;DHT22;20065;48.380;10.892;2023-05-07T08:37:34;17.00;99.90
33741;DHT22;20065;48.380;10.892;2023-05-07T08:40:25;17.00;99.90
33741;DHT22;20065;48.380;10.892;2023-05-07T08:43:13;17.10;99.90
33741;DHT22;20065;48.380;10.892;2023-05-07T08:46:01;17.20;99.90
33741;DHT22;20065;48.380;10.892;2023-05-07T08:48:52;17.30;99.90
33741;DHT22;20065;48.380;10.892;2023-05-07T08:51:39;17.30;99.90
33741;DHT22;20065;48.380;10.892;2023-05-07T08:54:26;17.40;99.90
33741;DHT22;20065;48.380;10.892;2023-05-07T08:57:13;17.40;99.90
33741;DHT22;20065;48.380;10.892;2023-05-07T08:59:59;17.40;99.90
33741;DHT22;20065;48.380;10.892;2023-05-07T09:02:46;17.40;99.90
33741;DHT22;20065;48.380;10.892;2023-05-07T09:05:32;17.50;99.90
33741;DHT22;20065;48.380;10.892;2023-05-07T09:08:24;17.50;99.90
33741;DHT22;20065;48.380;10.892;2023-05-07T09:11:11;17.60;99.90
33741;DHT22;20065;48.380;10.892;2023-05-07T09:13:59;17.60;99.90
33741;DHT22;20065;48.380;10.892;2023-05-07T09:16:53;17.60;99.90
33741;DHT22;20065;48.380;10.892;2023-05-07T09:19:39;17.70;99.90
33741;DHT22;20065;48.380;10.892;2023-05-07T09:22:36;17.80;99.90
33741;DHT22;20065;48.380;10.892;2023-05-07T09:25:30;17.80;99.90
33741;DHT22;20065;48.380;10.892;2023-05-07T09:28:17;17.90;99.90
33741;DHT22;20065;48.380;10.892;2023-05-07T09:31:04;17.90;99.90
33741;DHT22;20065;48.380;10.892;2023-05-07T09:34:00;18.00;99.90
33741;DHT22;20065;48.380;10.892;2023-05-07T09:36:50;18.10;99.90
33741;DHT22;20065;48.380;10.892;2023-05-07T09:39:44;18.10;99.90
33741;DHT22;20065;48.380;10.892;2023-05-07T09:42:33;18.10;99.90
33741;DHT22;20065;48.380;10.892;2023-05-07T09:45:26;18.10;99.90
33741;DHT22;20065;48.380;10.892;2023-05-07T09:48:15;18.30;99.90
33741;DHT22;20065;48.380;10.892;2023-05-07T09:51:10;18.40;99.90
33741;DHT22;20065;48.380;10.892;2023-05-07T09:53:58;18.50;99.90
33741;DHT22;20065;48.380;10.892;2023-05-07T09:56:52;18.60;99.90
33741;DHT22;20065;48.380;10.892;2023-05-07T09:59:46;18.60;99.90
33741;DHT22;20065;48.380;10.892;2023-05-07T10:02:36;18.60;99.90
33741;DHT22;20065;48.380;10.892;2023-05-07T10:05:24;18.60;99.90
33741;DHT22;20065;48.380;10.892;2023-05-07T10:08:13;18.80;99.90
33741;DHT22;20065;48.380;10.892;2023-05-07T10:11:06;18.90;99.90
33741;DHT22;20065;48.380;10.892;2023-05-07T10:13:53;18.90;99.90
33741;DHT22;20065;48.380;10.892;2023-05-07T10:16:39;18.90;99.90
33741;DHT22;20065;48.380;10.892;2023-05-07T10:19:32;19.00;99.90
33741;DHT22;20065;48.380;10.892;2023-05-07T10:22:26;19.10;99.90
33741;DHT22;20065;48.380;10.892;2023-05-07T10:25:22;19.10;99.90
33741;DHT22;20065;48.380;10.892;2023-05-07T10:28:12;19.20;99.90
33741;DHT22;20065;48.380;10.892;2023-05-07T10:33:58;19.30;99.90
33741;DHT22;20065;48.380;10.892;2023-05-07T10:36:46;19.30;99.90
33741;DHT22;20065;48.380;10.892;2023-05-07T10:39:34;19.50;99.90
33741;DHT22;20065;48.380;10.892;2023-05-07T10:42:22;19.60;99.90
33741;DHT22;20065;48.380;10.892;2023-05-07T10:45:15;19.60;99.90
33741;DHT22;20065;48.380;10.892;2023-05-07T10:48:13;19.50;99.90
33741;DHT22;20065;48.380;10.892;2023-05-07T10:51:21;19.60;99.90
33741;DHT22;20065;48.380;10.892;2023-05-07T10:57:32;19.60;99.90
33741;DHT22;20065;48.380;10.892;2023-05-07T11:03:10;19.50;99.90
33741;DHT22;20065;48.380;10.892;2023-05-07T11:06:14;19.60;99.90
33741;DHT22;20065;48.380;10.892;2023-05-07T11:09:24;19.60;99.90
33741;DHT22;20065;48.380;10.892;2023-05-07T11:12:16;19.70;99.90
33741;DHT22;20065;48.380;10.892;2023-05-07T11:15:10;19.70;99.90
33741;DHT22;20065;48.380;10.892;2023-05-07T11:17:59;19.90;99.90
33741;DHT22;20065;48.380;10.892;2023-05-07T11:20:57;19.90;99.90
33741;DHT22;20065;48.380;10.892;2023-05-07T11:24:08;19.90;99.90
33741;DHT22;20065;48.380;10.892;2023-05-07T11:27:02;19.90;99.90
33741;DHT22;20065;48.380;10.892;2023-05-07T11:29:50;19.90;99.90
33741;DHT22;20065;48.380;10.892;2023-05-07T11:32:47;20.00;99.90
33741;DHT22;20065;48.380;10.892;2023-05-07T11:35:36;20.00;99.90
33741;DHT22;20065;48.380;10.892;2023-05-07T11:38:25;20.00;99.90
33741;DHT22;20065;48.380;10.892;2023-05-07T11:41:11;20.00;99.90
33741;DHT22;20065;48.380;10.892;2023-05-07T11:43:59;20.00;99.90
33741;DHT22;20065;48.380;10.892;2023-05-07T11:46:45;20.00;99.90
33741;DHT22;20065;48.380;10.892;2023-05-07T11:49:48;20.10;99.90
33741;DHT22;20065;48.380;10.892;2023-05-07T11:53:16;20.10;99.90
33741;DHT22;20065;48.380;10.892;2023-05-07T11:56:14;20.10;99.90
33741;DHT22;20065;48.380;10.892;2023-05-07T11:59:02;20.20;99.90
33741;DHT22;20065;48.380;10.892;2023-05-07T12:01:49;20.10;99.90
33741;DHT22;20065;48.380;10.892;2023-05-07T12:04:35;20.10;99.90
33741;DHT22;20065;48.380;10.892;2023-05-07T12:07:21;20.10;99.90
33741;DHT22;20065;48.380;10.892;2023-05-07T12:10:11;20.10;99.90
33741;DHT22;20065;48.380;10.892;2023-05-07T12:12:57;20.20;99.90
33741;DHT22;20065;48.380;10.892;2023-05-07T12:15:44;20.20;99.90
33741;DHT22;20065;48.380;10.892;2023-05-07T12:18:30;20.20;99.90
33741;DHT22;20065;48.380;10.892;2023-05-07T12:21:17;20.20;99.90
33741;DHT22;20065;48.380;10.892;2023-05-07T12:24:04;20.20;99.90
33741;DHT22;20065;48.380;10.892;2023-05-07T12:26:50;20.30;99.90
33741;DHT22;20065;48.380;10.892;2023-05-07T12:29:36;20.30;99.90
33741;DHT22;20065;48.380;10.892;2023-05-07T12:32:25;20.30;99.90
33741;DHT22;20065;48.380;10.892;2023-05-07T12:35:12;20.30;99.90
33741;DHT22;20065;48.380;10.892;2023-05-07T12:38:00;20.30;99.90
33741;DHT22;20065;48.380;10.892;2023-05-07T12:40:53;20.30;99.90
33741;DHT22;20065;48.380;10.892;2023-05-07T12:43:40;20.20;99.90
33741;DHT22;20065;48.380;10.892;2023-05-07T12:46:29;20.30;99.90
33741;DHT22;20065;48.380;10.892;2023-05-07T12:49:16;20.30;99.90
33741;DHT22;20065;48.380;10.892;2023-05-07T12:52:04;20.20;99.90
33741;DHT22;20065;48.380;10.892;2023-05-07T12:54:51;20.20;99.90
33741;DHT22;20065;48.380;10.892;2023-05-07T12:57:47;20.30;99.90
33741;DHT22;20065;48.380;10.892;2023-05-07T13:00:40;20.30;99.90
33741;DHT22;20065;48.380;10.892;2023-05-07T13:03:34;20.30;99.90
33741;DHT22;20065;48.380;10.892;2023-05-07T13:06:22;20.30;99.90
33741;DHT22;20065;48.380;10.892;2023-05-07T13:09:12;20.30;99.90
33741;DHT22;20065;48.380;10.892;2023-05-07T13:11:58;20.20;99.90
33741;DHT22;20065;48.380;10.892;2023-05-07T13:14:47;20.20;99.90
33741;DHT22;20065;48.380;10.892;2023-05-07T13:17:33;20.30;99.90
33741;DHT22;20065;48.380;10.892;2023-05-07T13:20:19;20.30;99.90
33741;DHT22;20065;48.380;10.892;2023-05-07T13:23:06;20.30;99.90
33741;DHT22;20065;48.380;10.892;2023-05-07T13:25:52;20.30;99.90
33741;DHT22;20065;48.380;10.892;2023-05-07T13:28:41;20.30;99.90
33741;DHT22;20065;48.380;10.892;2023-05-07T13:31:29;20.40;99.90
33741;DHT22;20065;48.380;10.892;2023-05-07T13:34:15;20.40;99.90
33741;DHT22;20065;48.380;10.892;2023-05-07T13:37:01;20.30;99.90
33741;DHT22;20065;48.380;10.892;2023-05-07T13:39:48;20.30;99.90
33741;DHT22;20065;48.380;10.892;2023-05-07T13:42:34;20.40;99.90
33741;DHT22;20065;48.380;10.892;2023-05-07T13:45:20;20.30;99.90
33741;DHT22;20065;48.380;10.892;2023-05-07T13:48:07;20.30;99.90
33741;DHT22;20065;48.380;10.892;2023-05-07T13:50:53;20.30;99.90
33741;DHT22;20065;48.380;10.892;2023-05-07T13:53:39;20.40;99.90
33741;DHT22;20065;48.380;10.892;2023-05-07T13:56:25;20.40;99.90
33741;DHT22;20065;48.380;10.892;2023-05-07T13:59:11;20.40;99.90
33741;DHT22;20065;48.380;10.892;2023-05-07T14:02:00;20.40;99.90
33741;DHT22;20065;48.380;10.892;2023-05-07T14:04:46;20.30;99.90
33741;DHT22;20065;48.380;10.892;2023-05-07T14:07:32;20.40;99.90
33741;DHT22;20065;48.380;10.892;2023-05-07T14:10:19;20.40;99.90
33741;DHT22;20065;48.380;10.892;2023-05-07T14:13:06;20.50;99.90
33741;DHT22;20065;48.380;10.892;2023-05-07T14:15:57;20.40;99.90
33741;DHT22;20065;48.380;10.892;2023-05-07T14:18:44;20.40;99.90
33741;DHT22;20065;48.380;10.892;2023-05-07T14:21:31;20.40;99.90
33741;DHT22;20065;48.380;10.892;2023-05-07T14:24:17;20.40;99.90
33741;DHT22;20065;48.380;10.892;2023-05-07T14:27:04;20.30;99.90
33741;DHT22;20065;48.380;10.892;2023-05-07T14:29:50;20.30;99.90
33741;DHT22;20065;48.380;10.892;2023-05-07T14:32:53;20.40;99.90
33741;DHT22;20065;48.380;10.892;2023-05-07T14:35:39;20.40;99.90
33741;DHT22;20065;48.380;10.892;2023-05-07T14:38:27;20.40;99.90
33741;DHT22;20065;48.380;10.892;2023-05-07T14:41:13;20.40;99.90
33741;DHT22;20065;48.380;10.892;2023-05-07T14:44:15;20.30;99.90
33741;DHT22;20065;48.380;10.892;2023-05-07T14:47:02;20.30;99.90
33741;DHT22;20065;48.380;10.892;2023-05-07T14:49:56;20.30;99.90
33741;DHT22;20065;48.380;10.892;2023-05-07T14:52:50;20.30;99.90
33741;DHT22;20065;48.380;10.892;2023-05-07T14:55:44;20.30;99.90
33741;DHT22;20065;48.380;10.892;2023-05-07T14:58:30;20.30;99.90
33741;DHT22;20065;48.380;10.892;2023-05-07T15:01:16;20.20;99.90
33741;DHT22;20065;48.380;10.892;2023-05-07T15:04:06;20.20;99.90
33741;DHT22;20065;48.380;10.892;2023-05-07T15:06:52;20.20;99.90
33741;DHT22;20065;48.380;10.892;2023-05-07T15:09:45;20.20;99.90
33741;DHT22;20065;48.380;10.892;2023-05-07T15:12:32;20.00;99.90
33741;DHT22;20065;48.380;10.892;2023-05-07T15:15:18;20.00;99.90
33741;DHT22;20065;48.380;10.892;2023-05-07T15:18:04;20.00;99.90
33741;DHT22;20065;48.380;10.892;2023-05-07T15:20:50;20.00;99.90
33741;DHT22;20065;48.380;10.892;2023-05-07T15:23:36;20.00;99.90
33741;DHT22;20065;48.380;10.892;2023-05-07T15:26:23;20.00;99.90
33741;DHT22;20065;48.380;10.892;2023-05-07T15:29:09;20.00;99.90
33741;DHT22;20065;48.380;10.892;2023-05-07T15:31:56;19.90;99.90
33741;DHT22;20065;48.380;10.892;2023-05-07T15:34:54;19.90;99.90
33741;DHT22;20065;48.380;10.892;2023-05-07T15:37:54;20.00;99.90
33741;DHT22;20065;48.380;10.892;2023-05-07T15:40:41;19.90;99.90
33741;DHT22;20065;48.380;10.892;2023-05-07T15:43:27;19.90;99.90
33741;DHT22;20065;48.380;10.892;2023-05-07T15:46:20;19.90;99.90
33741;DHT22;20065;48.380;10.892;2023-05-07T15:49:11;19.90;99.90
33741;DHT22;20065;48.380;10.892;2023-05-07T15:51:58;19.80;99.90
33741;DHT22;20065;48.380;10.892;2023-05-07T15:54:44;19.80;99.90
33741;DHT22;20065;48.380;10.892;2023-05-07T15:57:30;19.80;99.90
33741;DHT22;20065;48.380;10.892;2023-05-07T16:00:17;19.70;99.90
33741;DHT22;20065;48.380;10.892;2023-05-07T16:03:04;19.70;99.90
33741;DHT22;20065;48.380;10.892;2023-05-07T16:05:50;19.70;99.90
33741;DHT22;20065;48.380;10.892;2023-05-07T16:08:37;19.70;99.90
33741;DHT22;20065;48.380;10.892;2023-05-07T16:11:37;19.70;99.90
33741;DHT22;20065;48.380;10.892;2023-05-07T16:14:26;19.70;99.90
33741;DHT22;20065;48.380;10.892;2023-05-07T16:17:12;19.60;99.90
33741;DHT22;20065;48.380;10.892;2023-05-07T16:20:05;19.60;99.90
33741;DHT22;20065;48.380;10.892;2023-05-07T16:23:00;19.70;99.90
33741;DHT22;20065;48.380;10.892;2023-05-07T16:25:56;19.60;99.90
33741;DHT22;20065;48.380;10.892;2023-05-07T16:28:42;19.60;99.90
33741;DHT22;20065;48.380;10.892;2023-05-07T16:31:28;19.60;99.90
33741;DHT22;20065;48.380;10.892;2023-05-07T16:34:14;19.50;99.90
33741;DHT22;20065;48.380;10.892;2023-05-07T16:37:02;19.50;99.90
33741;DHT22;20065;48.380;10.892;2023-05-07T16:39:49;19.60;99.90
33741;DHT22;20065;48.380;10.892;2023-05-07T16:42:36;19.50;99.90
33741;DHT22;20065;48.380;10.892;2023-05-07T16:45:23;19.50;99.90
33741;DHT22;20065;48.380;10.892;2023-05-07T16:48:09;19.50;99.90
33741;DHT22;20065;48.380;10.892;2023-05-07T16:50:57;19.40;99.90
33741;DHT22;20065;48.380;10.892;2023-05-07T16:53:43;19.40;99.90
33741;DHT22;20065;48.380;10.892;2023-05-07T16:56:32;19.40;99.90
33741;DHT22;20065;48.380;10.892;2023-05-07T16:59:18;19.40;99.90
33741;DHT22;20065;48.380;10.892;2023-05-07T17:02:06;19.30;99.90
33741;DHT22;20065;48.380;10.892;2023-05-07T17:04:53;19.30;99.90
33741;DHT22;20065;48.380;10.892;2023-05-07T17:07:44;19.30;99.90
33741;DHT22;20065;48.380;10.892;2023-05-07T17:10:30;19.30;99.90
33741;DHT22;20065;48.380;10.892;2023-05-07T17:13:16;19.20;99.90
33741;DHT22;20065;48.380;10.892;2023-05-07T17:16:27;19.20;99.90
33741;DHT22;20065;48.380;10.892;2023-05-07T17:19:13;19.20;99.90
33741;DHT22;20065;48.380;10.892;2023-05-07T17:21:59;19.10;99.90
33741;DHT22;20065;48.380;10.892;2023-05-07T17:24:46;19.10;99.90
33741;DHT22;20065;48.380;10.892;2023-05-07T17:27:33;19.10;99.90
33741;DHT22;20065;48.380;10.892;2023-05-07T17:30:20;19.10;99.90
33741;DHT22;20065;48.380;10.892;2023-05-07T17:33:06;19.10;99.90
33741;DHT22;20065;48.380;10.892;2023-05-07T17:35:52;19.00;99.90